Time;durP1;ratioP1;P1;durP2;ratioP2;P2;SDS_P1;SDS_P2;PMS_P1;PMS_P2;Temp;Humidity;BMP_temperature;BMP_pressure;BME280_temperature;BME280_humidity;BME280_pressure;Samples;Min_cycle;Max_cycle;Signal;HPM_P1;HPM_P2
2022/09/30 00:01:34;;;;;;;7.55;6.22;;;;;;;8.33;83.40;100103.19;5060232;28;20076;-62
2022/09/30 00:04:02;;;;;;;9.95;6.50;;;;;;;8.35;83.54;100111.78;5042213;28;20049;-64
2022/09/30 00:06:34;;;;;;;9.35;6.03;;;;;;;8.32;83.18;100108.50;5062108;28;20152;-64
2022/09/30 00:09:02;;;;;;;7.82;6.22;;;;;;;8.27;83.20;100111.38;5052266;28;20151;-64
2022/09/30 00:11:32;;;;;;;8.95;6.63;;;;;;;8.24;83.51;100108.09;5047266;28;20053;-64
2022/09/30 00:14:01;;;;;;;8.05;6.07;;;;;;;8.20;82.98;100106.59;5038409;28;20076;-64
2022/09/30 00:16:31;;;;;;;7.22;6.25;;;;;;;8.23;83.33;100109.03;5033133;28;20405;-64
2022/09/30 00:18:59;;;;;;;8.15;5.80;;;;;;;8.23;82.93;100114.28;5043977;28;20057;-63
2022/09/30 00:21:30;;;;;;;9.30;5.72;;;;;;;8.23;82.17;100115.13;5030594;28;20072;-65
2022/09/30 00:23:57;;;;;;;8.02;5.80;;;;;;;8.25;82.68;100113.25;5034398;28;20481;-64
2022/09/30 00:26:24;;;;;;;7.70;6.22;;;;;;;8.26;82.91;100124.59;5035615;28;20056;-64
2022/09/30 00:28:54;;;;;;;7.10;5.72;;;;;;;8.19;82.59;100116.22;5038945;28;20057;-63
2022/09/30 00:31:23;;;;;;;8.82;5.82;;;;;;;8.16;83.39;100123.44;5033500;28;20053;-63
2022/09/30 00:34:06;;;;;;;7.45;5.85;;;;;;;8.09;83.33;100126.38;5031269;28;20147;-63
2022/09/30 00:36:49;;;;;;;7.65;5.57;;;;;;;8.06;83.84;100118.72;5030368;28;20059;-62
2022/09/30 00:39:18;;;;;;;9.25;6.38;;;;;;;8.06;83.99;100113.47;5035081;28;20052;-64
2022/09/30 00:41:48;;;;;;;6.68;5.65;;;;;;;8.07;83.04;100119.56;5030742;28;20596;-64
2022/09/30 00:44:43;;;;;;;6.95;5.53;;;;;;;8.08;83.02;100119.47;5033512;28;21797;-62
2022/09/30 00:47:42;;;;;;;6.70;5.75;;;;;;;8.09;82.51;100121.16;5031998;28;20083;-64
2022/09/30 00:50:32;;;;;;;7.45;5.82;;;;;;;8.07;83.15;100128.25;5014425;28;20041;-63
2022/09/30 00:53:01;;;;;;;6.75;5.60;;;;;;;8.02;83.01;100119.81;5018891;28;20070;-62
2022/09/30 00:55:35;;;;;;;7.13;5.80;;;;;;;8.01;82.98;100123.34;5041644;28;20132;-63
2022/09/30 00:58:05;;;;;;;6.30;5.70;;;;;;;7.95;83.27;100115.84;5046774;28;20408;-64
2022/09/30 01:00:33;;;;;;;6.90;5.68;;;;;;;7.90;83.80;100124.91;5043624;28;20045;-65
2022/09/30 01:03:01;;;;;;;6.28;5.43;;;;;;;7.86;83.98;100118.97;5036734;28;20053;-64
2022/09/30 01:05:31;;;;;;;7.05;5.53;;;;;;;7.84;84.10;100128.72;5028519;28;20052;-63
2022/09/30 01:08:00;;;;;;;9.13;5.63;;;;;;;7.81;84.29;100128.88;5041083;28;20040;-65
2022/09/30 01:10:28;;;;;;;7.47;5.53;;;;;;;7.79;84.19;100128.97;5049041;28;20057;-65
2022/09/30 01:12:56;;;;;;;7.30;5.35;;;;;;;7.82;84.10;100133.19;5030579;28;20053;-66
2022/09/30 01:15:40;;;;;;;7.90;5.72;;;;;;;7.83;83.39;100132.25;5037238;28;20627;-63
2022/09/30 01:18:16;;;;;;;7.38;5.28;;;;;;;7.82;83.85;100134.03;5072115;28;20658;-64
2022/09/30 01:21:21;;;;;;;6.82;5.65;;;;;;;7.82;83.70;100135.78;5047692;28;20053;-64
2022/09/30 01:24:08;;;;;;;7.43;6.05;;;;;;;7.78;84.44;100135.13;5040478;28;20519;-63
2022/09/30 01:26:47;;;;;;;7.82;5.45;;;;;;;7.78;84.45;100132.50;5046137;28;20057;-66
2022/09/30 01:29:47;;;;;;;8.10;5.85;;;;;;;7.73;84.36;100141.53;5046060;28;20053;-67
2022/09/30 01:32:42;;;;;;;6.53;5.30;;;;;;;7.74;84.08;100143.22;5057816;28;20060;-65
2022/09/30 01:35:49;;;;;;;8.38;5.72;;;;;;;7.78;83.83;100144.75;5046475;28;20080;-65
2022/09/30 01:38:21;;;;;;;;;;;;;;;7.79;84.26;100139.44;5044919;28;20057;-64
2022/09/30 01:41:08;;;;;;;6.15;5.35;;;;;;;7.77;84.21;100128.19;5042127;28;20594;-64
2022/09/30 01:43:44;;;;;;;5.78;5.07;;;;;;;7.76;84.18;100129.13;5047184;28;20036;-64
2022/09/30 01:46:28;;;;;;;6.93;5.43;;;;;;;7.76;84.08;100126.50;5050602;28;20405;-64
2022/09/30 01:49:17;;;;;;;6.07;5.43;;;;;;;7.71;83.93;100133.78;5050385;28;20056;-64
2022/09/30 01:51:52;;;;;;;8.20;5.75;;;;;;;7.72;84.47;100142.47;5040912;28;20057;-64
2022/09/30 01:54:20;;;;;;;8.80;5.43;;;;;;;7.74;84.40;100140.63;5057245;28;20504;-64
2022/09/30 01:56:52;;;;;;;8.45;5.50;;;;;;;7.69;84.47;100145.25;5056053;28;20064;-64
2022/09/30 01:59:35;;;;;;;6.63;5.65;;;;;;;7.65;85.17;100133.25;5055934;28;20049;-65
2022/09/30 02:02:09;;;;;;;6.47;5.78;;;;;;;7.57;84.58;100139.78;5038049;28;20574;-65
2022/09/30 02:04:41;;;;;;;6.40;5.25;;;;;;;7.55;85.34;100136.38;5051179;28;20099;-66
2022/09/30 02:07:13;;;;;;;7.72;5.18;;;;;;;7.58;85.10;100130.13;5044860;28;20057;-66
2022/09/30 02:09:53;;;;;;;7.10;5.32;;;;;;;7.58;84.90;100138.84;5060655;28;20044;-66
2022/09/30 02:12:23;;;;;;;6.05;5.30;;;;;;;7.58;85.07;100130.97;5054286;28;20063;-66
2022/09/30 02:15:13;;;;;;;6.13;5.03;;;;;;;7.59;84.79;100137.91;5052825;28;20044;-66
2022/09/30 02:17:45;;;;;;;7.18;5.65;;;;;;;7.54;84.25;100141.72;5052004;28;20405;-65
2022/09/30 02:20:18;;;;;;;5.90;5.07;;;;;;;7.52;84.75;100143.53;5048057;28;20071;-65
2022/09/30 02:22:48;;;;;;;7.80;5.70;;;;;;;7.51;84.67;100147.09;5048849;28;20511;-64
2022/09/30 02:25:19;;;;;;;6.97;5.00;;;;;;;7.52;84.57;100144.41;5048535;28;20053;-64
2022/09/30 02:27:51;;;;;;;5.85;5.18;;;;;;;7.53;84.20;100140.03;5048576;28;20127;-65
2022/09/30 02:30:18;;;;;;;8.45;5.03;;;;;;;7.50;84.81;100142.81;5047422;28;20091;-65
2022/09/30 02:33:07;;;;;;;6.70;5.35;;;;;;;7.48;85.03;100142.91;5054491;28;20052;-65
2022/09/30 02:35:37;;;;;;;6.43;5.20;;;;;;;7.41;85.30;100152.00;5051722;28;20049;-65
2022/09/30 02:38:14;;;;;;;7.20;5.00;;;;;;;7.33;85.47;100148.94;5054154;28;20412;-66
2022/09/30 02:40:48;;;;;;;8.07;5.93;;;;;;;7.33;85.70;100143.69;5044897;28;20065;-63
2022/09/30 02:43:17;;;;;;;7.40;5.75;;;;;;;7.36;85.70;100146.16;5046390;28;20560;-65
2022/09/30 02:46:02;;;;;;;6.28;5.15;;;;;;;7.38;85.15;100156.53;5050057;28;20053;-65
2022/09/30 02:48:41;;;;;;;9.65;6.13;;;;;;;7.38;84.67;100161.78;5052183;28;20080;-63
2022/09/30 02:51:21;;;;;;;9.88;6.03;;;;;;;7.28;85.51;100157.03;5050716;28;20057;-64
2022/09/30 02:54:16;;;;;;;5.25;4.43;;;;;;;7.18;86.35;100157.59;5058304;28;20049;-63
2022/09/30 02:56:57;;;;;;;6.47;5.60;;;;;;;7.19;86.77;100167.97;5053957;28;20058;-65
2022/09/30 02:59:25;;;;;;;6.50;5.55;;;;;;;7.19;86.21;100164.53;5063998;28;20454;-66
2022/09/30 03:01:53;;;;;;;8.77;4.78;;;;;;;7.19;86.15;100167.97;5051027;28;20067;-64
2022/09/30 03:04:23;;;;;;;5.97;4.88;;;;;;;7.21;86.29;100166.16;5045270;28;20049;-64
2022/09/30 03:06:50;;;;;;;5.88;5.15;;;;;;;7.22;86.15;100173.06;5044040;28;20052;-64
2022/09/30 03:09:17;;;;;;;5.55;5.00;;;;;;;7.22;85.43;100172.22;5056490;28;20058;-64
2022/09/30 03:11:46;;;;;;;6.60;5.45;;;;;;;7.19;86.03;100170.59;5057503;28;20064;-64
2022/09/30 03:14:28;;;;;;;8.27;6.22;;;;;;;7.19;85.86;100170.59;5058709;28;20049;-64
2022/09/30 03:17:08;;;;;;;7.65;6.45;;;;;;;7.22;85.78;100174.84;5041946;28;20049;-65
2022/09/30 03:20:03;;;;;;;8.38;5.78;;;;;;;7.19;86.33;100173.22;5048329;28;20464;-65
2022/09/30 03:22:59;;;;;;;7.30;6.10;;;;;;;7.15;86.32;100170.84;5049557;28;20056;-65
2022/09/30 03:25:43;;;;;;;6.07;5.35;;;;;;;7.14;85.81;100169.16;5050462;28;20124;-64
2022/09/30 03:28:24;;;;;;;9.02;6.35;;;;;;;7.16;85.76;100176.03;5049069;28;20053;-64
2022/09/30 03:31:11;;;;;;;6.68;5.28;;;;;;;7.14;85.99;100175.22;5045515;28;20055;-65
2022/09/30 03:33:50;;;;;;;7.95;6.68;;;;;;;7.02;85.88;100176.69;5046995;28;20044;-65
2022/09/30 03:36:20;;;;;;;8.13;5.85;;;;;;;6.95;86.84;100182.34;5045830;28;20088;-64
2022/09/30 03:38:55;;;;;;;9.30;6.30;;;;;;;6.95;87.14;100191.03;5050109;28;20045;-64
2022/09/30 03:41:39;;;;;;;7.43;6.47;;;;;;;7.01;86.92;100190.72;5060267;28;20058;-64
2022/09/30 03:44:15;;;;;;;7.32;6.20;;;;;;;7.03;86.35;100191.50;5049917;28;20084;-65
2022/09/30 03:46:50;;;;;;;9.55;6.18;;;;;;;7.02;86.22;100189.78;5058894;28;20540;-65
2022/09/30 03:49:25;;;;;;;6.88;5.80;;;;;;;6.99;86.47;100196.97;5047174;28;20073;-64
2022/09/30 03:51:52;;;;;;;7.22;5.80;;;;;;;6.99;86.27;100196.97;5059805;28;20064;-64
2022/09/30 03:54:21;;;;;;;7.53;5.75;;;;;;;6.99;86.68;100205.66;5054415;28;20045;-64
2022/09/30 03:56:48;;;;;;;8.55;5.90;;;;;;;6.99;86.09;100200.44;5049395;28;20041;-64
2022/09/30 03:59:22;;;;;;;7.57;5.63;;;;;;;7.00;85.78;100199.50;5048657;28;20057;-64
2022/09/30 04:01:50;;;;;;;6.57;5.72;;;;;;;7.00;86.45;100199.50;5046960;28;20162;-63
2022/09/30 04:04:18;;;;;;;7.53;5.95;;;;;;;6.99;86.36;100194.34;5050799;28;20098;-63
2022/09/30 04:06:46;;;;;;;6.25;5.50;;;;;;;6.97;86.23;100198.81;5048025;28;20048;-64
2022/09/30 04:09:13;;;;;;;7.85;5.85;;;;;;;6.90;87.12;100207.91;5050155;28;20091;-64
2022/09/30 04:11:42;;;;;;;12.82;6.55;;;;;;;6.83;87.14;100210.81;5063302;22;20049;-64
2022/09/30 04:14:09;;;;;;;7.47;6.20;;;;;;;6.82;87.56;100218.75;5027157;28;20045;-60
2022/09/30 04:16:37;;;;;;;6.88;6.10;;;;;;;6.77;87.69;100211.13;5024277;28;20367;-61
2022/09/30 04:19:04;;;;;;;9.45;6.30;;;;;;;6.78;87.38;100217.19;5025198;28;20053;-61
2022/09/30 04:21:31;;;;;;;7.05;5.95;;;;;;;6.82;87.36;100219.59;5026230;28;20521;-61
2022/09/30 04:23:59;;;;;;;9.68;6.38;;;;;;;6.85;87.11;100223.84;5023398;28;20045;-62
2022/09/30 04:26:26;;;;;;;6.38;5.78;;;;;;;6.87;86.83;100216.75;5025690;28;20064;-62
2022/09/30 04:28:57;;;;;;;8.05;6.25;;;;;;;6.90;86.97;100226.22;5023423;28;20054;-62
2022/09/30 04:31:24;;;;;;;8.88;6.70;;;;;;;6.90;87.22;100232.31;5020425;28;20288;-61
2022/09/30 04:33:51;;;;;;;11.27;6.35;;;;;;;6.85;86.81;100227.28;5002767;28;20049;-62
2022/09/30 04:36:18;;;;;;;9.18;7.03;;;;;;;6.86;86.81;100230.75;5012617;28;20037;-61
2022/09/30 04:38:45;;;;;;;8.90;6.70;;;;;;;6.88;86.90;100228.91;5016591;28;20067;-61
2022/09/30 04:41:17;;;;;;;8.25;7.10;;;;;;;6.88;86.85;100225.44;5021965;28;20057;-62
2022/09/30 04:43:46;;;;;;;8.00;6.25;;;;;;;6.84;87.19;100236.06;5015077;28;21417;-62
2022/09/30 04:46:15;;;;;;;7.47;6.13;;;;;;;6.86;87.21;100241.22;5013905;28;20045;-62
2022/09/30 04:48:44;;;;;;;7.40;6.05;;;;;;;6.84;86.87;100243.94;5019322;28;20057;-63
2022/09/30 04:51:12;;;;;;;7.97;6.65;;;;;;;6.82;86.86;100244.91;5024442;28;20053;-63
2022/09/30 04:53:39;;;;;;;10.95;7.70;;;;;;;6.84;87.66;100248.28;5024500;28;20690;-62
2022/09/30 04:56:07;;;;;;;8.10;6.60;;;;;;;6.85;88.09;100258.69;5018965;28;20056;-63
2022/09/30 04:58:34;;;;;;;9.30;7.30;;;;;;;6.84;88.10;100254.41;5019401;28;20057;-62
2022/09/30 05:01:08;;;;;;;9.95;6.70;;;;;;;6.82;87.41;100258.84;5028926;28;20040;-61
2022/09/30 05:03:35;;;;;;;10.65;6.35;;;;;;;6.84;87.63;100266.59;5019076;28;20049;-63
2022/09/30 05:06:03;;;;;;;7.30;6.32;;;;;;;6.85;87.30;100263.09;5030034;28;20049;-63
2022/09/30 05:08:33;;;;;;;8.40;6.60;;;;;;;6.84;87.72;100267.47;5043419;28;20110;-62
2022/09/30 05:11:08;;;;;;;9.95;6.32;;;;;;;6.84;87.08;100264.84;5023780;28;20053;-63
2022/09/30 05:13:37;;;;;;;10.00;7.00;;;;;;;6.85;87.33;100265.69;5016929;28;20045;-62
2022/09/30 05:16:06;;;;;;;7.78;6.80;;;;;;;6.84;87.56;100262.25;5021795;28;20046;-62
2022/09/30 05:18:34;;;;;;;9.20;6.85;;;;;;;6.83;87.03;100268.38;5026750;28;20057;-61
2022/09/30 05:21:01;;;;;;;10.70;6.60;;;;;;;6.78;87.58;100265.13;5017190;28;20446;-62
2022/09/30 05:23:29;;;;;;;10.98;6.80;;;;;;;6.71;88.38;100275.97;5013935;28;20059;-63
2022/09/30 05:25:57;;;;;;;8.80;5.85;;;;;;;6.65;88.12;100271.88;5026200;28;20057;-62
2022/09/30 05:28:24;;;;;;;12.25;6.88;;;;;;;6.67;88.16;100279.69;5016586;28;20068;-62
2022/09/30 05:31:00;;;;;;;12.75;7.85;;;;;;;6.68;88.15;100283.97;5021441;28;20068;-63
2022/09/30 05:33:28;;;;;;;9.25;7.03;;;;;;;6.64;88.10;100290.28;5021452;28;20631;-62
2022/09/30 05:35:59;;;;;;;9.27;6.95;;;;;;;6.63;88.43;100285.97;5020334;28;20053;-63
2022/09/30 05:38:26;;;;;;;9.32;6.90;;;;;;;6.66;87.91;100291.03;5018210;28;20064;-60
2022/09/30 05:40:53;;;;;;;10.52;8.00;;;;;;;6.68;88.33;100294.44;5023298;28;20064;-63
2022/09/30 05:43:21;;;;;;;11.27;7.40;;;;;;;6.72;88.56;100298.63;5025636;28;20499;-64
2022/09/30 05:45:55;;;;;;;8.27;6.82;;;;;;;6.71;88.62;100296.91;5022696;28;20057;-61
2022/09/30 05:48:23;;;;;;;9.55;6.90;;;;;;;6.74;88.43;100294.97;5022533;28;20057;-63
2022/09/30 05:50:58;;;;;;;9.57;7.60;;;;;;;6.81;88.49;100296.41;5024026;28;20049;-62
2022/09/30 05:53:25;;;;;;;12.88;8.65;;;;;;;6.88;89.58;100304.78;5025209;28;20048;-62
2022/09/30 05:55:52;;;;;;;13.50;9.43;;;;;;;6.90;89.53;100313.41;5034722;28;20045;-62
2022/09/30 05:58:20;;;;;;;10.73;8.18;;;;;;;6.95;90.21;100310.56;5027928;28;20053;-62
2022/09/30 06:00:48;;;;;;;10.57;8.02;;;;;;;7.01;90.70;100311.09;5030203;28;20077;-63
2022/09/30 06:03:15;;;;;;;10.68;8.10;;;;;;;7.05;91.25;100317.88;5035839;28;20053;-62
2022/09/30 06:05:44;;;;;;;12.25;7.38;;;;;;;7.07;90.70;100309.97;5030760;28;20056;-63
2022/09/30 06:08:13;;;;;;;9.88;7.75;;;;;;;7.09;90.21;100308.13;5025239;28;20056;-63
2022/09/30 06:10:42;;;;;;;11.18;7.63;;;;;;;7.07;90.09;100318.69;5034261;28;20068;-63
2022/09/30 06:13:09;;;;;;;14.60;7.82;;;;;;;7.10;90.01;100323.75;5033291;28;20049;-64
2022/09/30 06:15:38;;;;;;;9.07;7.32;;;;;;;7.16;89.91;100319.13;5028351;28;20050;-64
2022/09/30 06:18:05;;;;;;;12.35;7.90;;;;;;;7.18;89.39;100327.75;5029303;28;20421;-62
2022/09/30 06:20:32;;;;;;;11.80;8.20;;;;;;;7.20;89.46;100320.66;5029972;28;20069;-62
2022/09/30 06:23:00;;;;;;;10.20;7.68;;;;;;;7.23;89.20;100328.38;5030440;28;20417;-61
2022/09/30 06:25:30;;;;;;;14.30;8.57;;;;;;;7.26;89.58;100325.63;5027008;28;20042;-61
2022/09/30 06:27:57;;;;;;;12.55;8.45;;;;;;;7.32;89.97;100333.16;5031628;28;20098;-64
2022/09/30 06:30:24;;;;;;;13.15;8.93;;;;;;;7.36;90.57;100332.94;5033544;28;20057;-64
2022/09/30 06:32:55;;;;;;;11.88;8.07;;;;;;;7.41;90.82;100348.41;5028137;28;20148;-63
2022/09/30 06:35:25;;;;;;;12.57;7.97;;;;;;;7.44;91.05;100350.03;5026362;28;20054;-63
2022/09/30 06:37:52;;;;;;;14.10;9.65;;;;;;;7.50;91.23;100350.56;5038270;28;20057;-64
2022/09/30 06:40:23;;;;;;;12.55;8.75;;;;;;;7.50;91.05;100353.19;5035678;28;20057;-63
2022/09/30 06:42:51;;;;;;;13.57;8.98;;;;;;;7.51;91.06;100349.63;5030675;28;20056;-63
2022/09/30 06:45:18;;;;;;;16.63;9.70;;;;;;;7.57;91.83;100354.56;5040961;28;20584;-63
2022/09/30 06:47:59;;;;;;;12.52;8.93;;;;;;;7.58;91.36;100352.81;5037446;28;20378;-62
2022/09/30 06:50:31;;;;;;;13.55;8.57;;;;;;;7.58;91.01;100353.66;5034126;28;20053;-62
2022/09/30 06:52:59;;;;;;;15.65;8.30;;;;;;;7.65;91.35;100362.03;5032819;28;20064;-60
2022/09/30 06:55:28;;;;;;;13.70;9.07;;;;;;;7.70;90.86;100361.78;5036124;28;20144;-63
2022/09/30 06:57:55;;;;;;;15.93;9.10;;;;;;;7.76;91.73;100367.56;5022088;28;20049;-63
2022/09/30 07:00:23;;;;;;;14.02;9.23;;;;;;;7.81;92.26;100369.97;5027492;28;20064;-63
2022/09/30 07:02:50;;;;;;;13.18;9.43;;;;;;;7.80;92.48;100371.75;5036092;28;20053;-63
2022/09/30 07:05:17;;;;;;;13.88;8.85;;;;;;;7.87;91.79;100370.47;5031980;28;20426;-63
2022/09/30 07:07:45;;;;;;;14.43;9.15;;;;;;;7.87;92.39;100370.47;5031653;28;20041;-62
2022/09/30 07:10:12;;;;;;;11.65;8.70;;;;;;;7.93;92.79;100369.34;5029445;28;20054;-63
2022/09/30 07:12:41;;;;;;;12.50;8.55;;;;;;;7.96;92.19;100370.94;5026552;28;20069;-65
2022/09/30 07:15:08;;;;;;;12.90;8.95;;;;;;;8.00;91.86;100381.19;5034024;28;20059;-63
2022/09/30 07:17:39;;;;;;;11.60;8.52;;;;;;;8.10;91.98;100378.91;5035829;28;20041;-63
2022/09/30 07:20:07;;;;;;;14.20;9.45;;;;;;;8.13;91.81;100373.53;5033008;28;20121;-64
2022/09/30 07:22:34;;;;;;;13.82;9.23;;;;;;;8.21;91.69;100373.13;5030201;28;20065;-63
2022/09/30 07:25:02;;;;;;;11.38;8.73;;;;;;;8.27;91.96;100373.63;5028452;28;20045;-64
2022/09/30 07:27:31;;;;;;;16.10;9.95;;;;;;;8.35;91.97;100381.09;5033750;28;20226;-64
2022/09/30 07:29:59;;;;;;;14.20;8.80;;;;;;;8.39;91.36;100382.66;5028970;28;20065;-61
2022/09/30 07:32:46;;;;;;;14.85;9.45;;;;;;;8.47;90.94;100385.72;5025599;28;20068;-62
2022/09/30 07:35:13;;;;;;;14.80;9.70;;;;;;;8.51;91.32;100384.63;5029081;28;20137;-63
2022/09/30 07:37:40;;;;;;;14.35;9.60;;;;;;;8.58;91.19;100378.09;5031236;28;20049;-63
2022/09/30 07:40:08;;;;;;;16.48;9.50;;;;;;;8.65;91.69;100383.03;5036458;28;20512;-63
2022/09/30 07:42:37;;;;;;;13.23;10.13;;;;;;;8.68;91.06;100388.09;5035304;28;20149;-63
2022/09/30 07:45:04;;;;;;;18.50;10.75;;;;;;;8.75;90.66;100390.31;5038985;28;20054;-64
2022/09/30 07:47:31;;;;;;;15.25;9.82;;;;;;;8.80;90.90;100390.91;5042385;28;20057;-63
2022/09/30 07:49:59;;;;;;;16.88;10.10;;;;;;;8.88;90.97;100393.94;5030559;28;20057;-61
2022/09/30 07:52:26;;;;;;;20.70;10.70;;;;;;;8.97;90.66;100392.59;5037378;28;20049;-63
2022/09/30 07:54:54;;;;;;;22.90;11.00;;;;;;;9.01;91.02;100391.50;5031994;28;20054;-61
2022/09/30 07:57:21;;;;;;;13.98;9.88;;;;;;;9.08;91.12;100390.19;5030194;28;20045;-63
2022/09/30 07:59:48;;;;;;;15.93;11.02;;;;;;;9.18;90.93;100393.16;5039801;28;20056;-63
2022/09/30 08:02:17;;;;;;;17.63;9.77;;;;;;;9.26;90.62;100395.34;5033540;28;20045;-63
2022/09/30 08:04:45;;;;;;;15.30;10.15;;;;;;;9.29;90.26;100397.81;5032212;28;20417;-64
2022/09/30 08:07:13;;;;;;;15.05;10.68;;;;;;;9.33;90.41;100402.78;5027773;28;20052;-64
2022/09/30 08:09:41;;;;;;;15.48;10.10;;;;;;;9.40;90.14;100405.91;5030622;28;20437;-64
2022/09/30 08:12:08;;;;;;;19.25;11.85;;;;;;;9.50;89.91;100403.59;5027356;28;20527;-64
2022/09/30 08:14:35;;;;;;;19.48;11.23;;;;;;;9.57;89.98;100411.03;5031830;28;20517;-64
2022/09/30 08:17:03;;;;;;;15.95;11.15;;;;;;;9.71;89.68;100401.50;5037680;28;20523;-64
2022/09/30 08:19:32;;;;;;;17.00;10.80;;;;;;;9.81;89.54;100410.53;5030168;28;20045;-61
2022/09/30 08:22:00;;;;;;;20.15;11.68;;;;;;;9.88;89.09;100420.59;5028904;28;20049;-62
2022/09/30 08:24:32;;;;;;;14.35;11.10;;;;;;;9.94;88.75;100418.53;5031202;28;20052;-62
2022/09/30 08:26:59;;;;;;;18.42;12.13;;;;;;;10.07;88.85;100416.88;5022176;28;20053;-62
2022/09/30 08:29:26;;;;;;;21.42;12.48;;;;;;;10.14;88.90;100419.06;5031529;28;20058;-63
2022/09/30 08:32:13;;;;;;;18.58;12.52;;;;;;;10.24;88.98;100426.38;5044506;28;20139;-63
2022/09/30 08:34:40;;;;;;;13.30;10.63;;;;;;;10.31;88.53;100430.34;5028832;28;20064;-63
2022/09/30 08:37:09;;;;;;;20.40;11.48;;;;;;;10.38;88.50;100416.72;5034703;28;20060;-62
2022/09/30 08:39:37;;;;;;;21.35;11.27;;;;;;;10.45;88.37;100413.75;5034658;28;20425;-62
2022/09/30 08:42:45;;;;;;;17.88;11.10;;;;;;;10.52;88.70;100418.50;5031692;28;20056;-62
2022/09/30 08:45:57;;;;;;;15.27;11.32;;;;;;;10.65;88.02;100429.97;5021655;28;20053;-60
2022/09/30 08:48:43;;;;;;;21.02;11.88;;;;;;;10.71;87.67;100435.78;5028127;28;20524;-63
2022/09/30 08:51:23;;;;;;;14.43;10.85;;;;;;;10.80;87.39;100436.06;5025309;28;20132;-63
2022/09/30 08:53:51;;;;;;;15.45;11.57;;;;;;;10.87;87.24;100433.91;5033448;28;20060;-63
2022/09/30 08:56:23;;;;;;;16.45;10.32;;;;;;;11.03;87.13;100431.13;5034817;28;20057;-63
2022/09/30 08:58:55;;;;;;;19.40;11.05;;;;;;;11.12;86.71;100439.31;5031508;28;20063;-63
2022/09/30 09:01:29;;;;;;;15.60;9.82;;;;;;;11.20;86.78;100440.59;5036255;28;20476;-62
2022/09/30 09:03:58;;;;;;;18.38;11.70;;;;;;;11.25;86.53;100446.41;5038777;28;20049;-63
2022/09/30 09:06:51;;;;;;;16.63;11.15;;;;;;;11.35;86.51;100445.72;5025988;28;20277;-62
2022/09/30 09:09:37;;;;;;;15.55;10.57;;;;;;;11.48;85.40;100440.47;5026949;28;20098;-63
2022/09/30 09:12:26;;;;;;;16.88;10.57;;;;;;;11.58;85.37;100440.75;5027195;28;20052;-63
2022/09/30 09:15:04;;;;;;;15.55;11.30;;;;;;;11.71;84.33;100446.03;5021107;28;20425;-63
2022/09/30 09:17:51;;;;;;;16.23;10.55;;;;;;;11.82;83.48;100443.53;5031481;28;20048;-63
2022/09/30 09:20:53;;;;;;;13.45;10.18;;;;;;;11.91;82.82;100440.31;5030895;28;20228;-63
2022/09/30 09:23:20;;;;;;;14.13;9.80;;;;;;;12.06;82.31;100443.69;5030192;28;20049;-63
2022/09/30 09:25:51;;;;;;;17.85;10.63;;;;;;;12.18;81.73;100447.31;5031840;28;20050;-63
2022/09/30 09:28:56;;;;;;;14.05;8.82;;;;;;;12.31;80.75;100448.16;5026622;28;20132;-62
2022/09/30 09:31:24;;;;;;;14.63;9.00;;;;;;;12.41;79.24;100439.47;5034973;28;20056;-63
2022/09/30 09:33:55;;;;;;;12.50;7.90;;;;;;;12.46;76.88;100448.88;5033372;28;20075;-63
2022/09/30 09:36:46;;;;;;;14.07;8.88;;;;;;;12.57;77.49;100439.25;5022403;28;20060;-63
2022/09/30 09:39:51;;;;;;;18.25;9.07;;;;;;;12.74;76.96;100450.41;5026859;28;20064;-63
2022/09/30 09:42:50;;;;;;;11.95;7.65;;;;;;;12.84;77.42;100447.03;5029433;28;20069;-62
2022/09/30 09:45:25;;;;;;;9.93;7.38;;;;;;;12.99;76.96;100444.25;5026582;28;20061;-62
2022/09/30 09:47:52;;;;;;;14.00;7.72;;;;;;;13.08;76.32;100448.88;5026594;28;20529;-62
2022/09/30 09:50:43;;;;;;;9.23;7.35;;;;;;;13.30;74.82;100445.53;5032947;28;20057;-62
2022/09/30 09:53:27;;;;;;;14.95;7.80;;;;;;;13.38;74.28;100446.69;5029518;28;20063;-62
2022/09/30 09:55:58;;;;;;;8.63;7.53;;;;;;;13.49;72.63;100440.59;5029532;28;20049;-63
2022/09/30 09:58:26;;;;;;;11.23;6.68;;;;;;;13.54;71.82;100440.25;5036008;28;20133;-62
2022/09/30 10:01:09;;;;;;;9.18;7.07;;;;;;;13.63;71.35;100431.63;5027784;28;20576;-62
2022/09/30 10:03:38;;;;;;;9.73;6.90;;;;;;;13.74;70.69;100428.19;5032080;28;20535;-62
2022/09/30 10:06:13;;;;;;;9.05;7.13;;;;;;;13.80;71.09;100431.19;5030262;28;20045;-61
2022/09/30 10:08:55;;;;;;;12.27;8.63;;;;;;;13.86;70.59;100420.16;5032662;28;20049;-62
2022/09/30 10:11:24;;;;;;;8.93;6.88;;;;;;;13.99;70.33;100425.34;5051720;23;20062;-66
2022/09/30 10:13:57;;;;;;;10.85;7.60;;;;;;;14.10;68.80;100422.75;5029920;28;20132;-62
2022/09/30 10:16:31;;;;;;;8.05;6.72;;;;;;;14.19;69.68;100419.38;5036987;28;20068;-63
2022/09/30 10:18:58;;;;;;;7.07;5.95;;;;;;;14.28;69.28;100424.94;5048387;28;20057;-62
2022/09/30 10:21:27;;;;;;;8.73;6.30;;;;;;;14.37;67.12;100419.75;5033270;28;20048;-63
2022/09/30 10:23:56;;;;;;;7.85;5.25;;;;;;;14.43;66.32;100424.56;5034039;28;20422;-64
2022/09/30 10:26:25;;;;;;;8.98;5.72;;;;;;;14.52;65.69;100416.91;5030520;28;20053;-63
2022/09/30 10:29:00;;;;;;;8.02;5.80;;;;;;;14.67;66.19;100419.16;5035610;28;20060;-64
2022/09/30 10:31:41;;;;;;;7.93;5.85;;;;;;;14.82;64.81;100422.44;5027968;28;20080;-64
2022/09/30 10:34:17;;;;;;;10.52;7.30;;;;;;;14.85;63.46;100421.31;5033467;28;20045;-65
2022/09/30 10:36:44;;;;;;;9.25;6.32;;;;;;;14.90;64.63;100421.78;5031719;28;20050;-65
2022/09/30 10:39:23;;;;;;;8.40;5.55;;;;;;;15.00;64.89;100408.66;5017060;28;20041;-64
2022/09/30 10:42:09;;;;;;;8.48;6.30;;;;;;;15.13;63.28;100417.28;5029473;28;20072;-64
2022/09/30 10:44:51;;;;;;;;;;;;;;;15.24;62.74;100414.63;5031779;28;20049;-65
2022/09/30 10:47:21;;;;;;;8.95;5.82;;;;;;;15.38;61.65;100416.13;5029520;28;20359;-63
2022/09/30 10:49:49;;;;;;;6.10;5.30;;;;;;;15.48;61.50;100417.03;5031254;28;20064;-64
2022/09/30 10:52:28;;;;;;;7.75;4.97;;;;;;;15.63;61.06;100413.13;5024976;28;20058;-64
2022/09/30 10:55:00;;;;;;;8.10;4.97;;;;;;;15.78;59.48;100410.19;5030743;28;20054;-64
2022/09/30 10:57:37;;;;;;;8.63;5.28;;;;;;;15.84;60.04;100397.22;5022292;28;20049;-65
2022/09/30 11:00:06;;;;;;;6.43;4.90;;;;;;;15.99;59.95;100403.09;5024063;28;20076;-63
2022/09/30 11:02:38;;;;;;;10.02;4.80;;;;;;;16.08;58.42;100399.63;5026988;28;20062;-64
2022/09/30 11:05:41;;;;;;;6.50;3.90;;;;;;;16.23;58.26;100405.44;5025847;28;20132;-62
2022/09/30 11:08:08;;;;;;;7.55;4.03;;;;;;;16.22;58.08;100406.41;5008809;28;20049;-63
2022/09/30 11:10:51;;;;;;;7.18;4.45;;;;;;;16.34;58.79;100400.03;5024347;28;20045;-65
2022/09/30 11:13:42;;;;;;;5.60;4.13;;;;;;;16.46;59.03;100403.44;5021693;28;20050;-63
2022/09/30 11:16:16;;;;;;;4.32;2.80;;;;;;;16.65;55.48;100403.50;5032343;28;20073;-63
2022/09/30 11:18:51;;;;;;;6.30;3.45;;;;;;;16.70;55.41;100406.59;5029142;28;20406;-64
2022/09/30 11:21:48;;;;;;;7.80;2.55;;;;;;;16.82;55.07;100402.06;5028647;28;20452;-64
2022/09/30 11:24:24;;;;;;;5.97;2.40;;;;;;;16.88;52.01;100403.31;5034384;28;20050;-63
2022/09/30 11:27:20;;;;;;;5.00;2.55;;;;;;;16.70;52.60;100392.47;5012877;28;20421;-63
2022/09/30 11:29:59;;;;;;;5.82;3.75;;;;;;;16.80;53.22;100397.88;5037454;28;20333;-64
2022/09/30 11:32:42;;;;;;;5.22;3.80;;;;;;;17.00;53.55;100391.59;5029054;28;20149;-64
2022/09/30 11:35:21;;;;;;;4.15;2.58;;;;;;;17.20;52.77;100392.47;5030309;28;20045;-63
2022/09/30 11:38:04;;;;;;;5.63;2.55;;;;;;;17.37;50.79;100388.28;5026060;28;20405;-64
2022/09/30 11:40:44;;;;;;;4.65;2.30;;;;;;;17.70;50.82;100387.03;5021557;28;20494;-63
2022/09/30 11:43:37;;;;;;;4.95;2.58;;;;;;;17.62;51.22;100390.38;5022200;28;20072;-64
2022/09/30 11:46:16;;;;;;;4.45;2.42;;;;;;;17.49;51.17;100387.16;5025696;28;20045;-65
2022/09/30 11:49:07;;;;;;;3.75;2.25;;;;;;;17.66;50.96;100389.13;5017001;28;20050;-64
2022/09/30 11:51:46;;;;;;;3.55;2.00;;;;;;;17.98;51.37;100387.13;5018063;28;20060;-64
2022/09/30 11:54:32;;;;;;;4.63;1.98;;;;;;;17.98;50.06;100395.13;5020688;28;20248;-63
2022/09/30 11:57:14;;;;;;;5.43;2.45;;;;;;;18.31;48.65;100391.94;5019923;28;20516;-64
2022/09/30 11:59:56;;;;;;;3.22;1.83;;;;;;;18.59;48.96;100398.13;5035236;28;20045;-64